Time;durP1;ratioP1;P1;durP2;ratioP2;P2;SDS_P1;SDS_P2;PMS_P1;PMS_P2;Temp;Humidity;BMP_temperature;BMP_pressure;BME280_temperature;BME280_humidity;BME280_pressure;Samples;Min_cycle;Max_cycle;Signal;HPM_P1;HPM_P2
2021/11/05 00:01:37;;;;;;;1.88;1.76;;;;;;;19.42;59.12;100301.05;;;;-55
2021/11/05 00:04:37;;;;;;;1.92;1.77;;;;;;;19.41;59.18;100302.09;;;;-55
2021/11/05 00:07:37;;;;;;;1.80;1.70;;;;;;;19.40;59.24;100302.40;;;;-55
2021/11/05 00:10:37;;;;;;;1.95;1.82;;;;;;;19.39;59.21;100305.17;;;;-55
2021/11/05 00:13:37;;;;;;;1.90;1.80;;;;;;;19.37;59.25;100304.67;;;;-55
2021/11/05 00:16:37;;;;;;;1.80;1.70;;;;;;;19.37;59.15;100308.17;;;;-55
2021/11/05 00:19:38;;;;;;;2.03;1.75;;;;;;;19.36;59.26;100308.99;;;;-55
2021/11/05 00:22:37;;;;;;;1.74;1.61;;;;;;;19.34;59.30;100311.17;;;;-55
2021/11/05 00:25:37;;;;;;;1.79;1.69;;;;;;;19.33;59.18;100319.44;;;;-56
2021/11/05 00:28:37;;;;;;;1.81;1.71;;;;;;;19.32;59.26;100316.20;;;;-55
2021/11/05 00:31:37;;;;;;;1.83;1.73;;;;;;;19.32;59.32;100316.66;;;;-49
2021/11/05 00:34:37;;;;;;;1.90;1.80;;;;;;;19.30;59.25;100314.66;;;;-49
2021/11/05 00:37:37;;;;;;;1.80;1.70;;;;;;;19.29;59.36;100312.92;;;;-51
2021/11/05 00:40:36;;;;;;;1.99;1.83;;;;;;;19.28;59.31;100320.97;;;;-51
2021/11/05 00:43:37;;;;;;;1.86;1.69;;;;;;;19.27;59.26;100319.82;;;;-51
2021/11/05 00:46:37;;;;;;;2.04;1.83;;;;;;;19.26;59.38;100326.25;;;;-49
2021/11/05 00:49:37;;;;;;;2.20;1.75;;;;;;;19.26;59.26;100333.20;;;;-56
2021/11/05 00:52:37;;;;;;;1.75;1.63;;;;;;;19.24;59.34;100336.31;;;;-56
2021/11/05 00:55:37;;;;;;;2.52;1.60;;;;;;;19.24;59.32;100337.45;;;;-55
2021/11/05 00:58:37;;;;;;;1.79;1.69;;;;;;;19.23;59.37;100341.66;;;;-56
2021/11/05 01:01:37;;;;;;;1.79;1.69;;;;;;;19.22;59.35;100344.02;;;;-55
2021/11/05 01:04:37;;;;;;;1.73;1.63;;;;;;;19.20;59.38;100344.33;;;;-56
2021/11/05 01:07:37;;;;;;;1.69;1.59;;;;;;;19.20;59.37;100343.52;;;;-50
2021/11/05 01:10:37;;;;;;;1.81;1.71;;;;;;;19.18;59.39;100346.67;;;;-49
2021/11/05 01:13:37;;;;;;;1.87;1.70;;;;;;;19.18;59.38;100347.81;;;;-49
2021/11/05 01:16:36;;;;;;;1.80;1.70;;;;;;;19.16;59.38;100350.55;;;;-55
2021/11/05 01:19:37;;;;;;;1.70;1.60;;;;;;;19.16;59.48;100354.05;;;;-49
2021/11/05 01:22:37;;;;;;;1.76;1.66;;;;;;;19.15;59.36;100354.52;;;;-53
2021/11/05 01:25:37;;;;;;;2.54;1.75;;;;;;;19.14;59.37;100360.70;;;;-49
2021/11/05 01:28:37;;;;;;;1.70;1.60;;;;;;;19.14;59.50;100362.65;;;;-54
2021/11/05 01:31:37;;;;;;;1.64;1.54;;;;;;;19.14;59.42;100363.38;;;;-51
2021/11/05 01:34:37;;;;;;;1.73;1.63;;;;;;;19.13;59.45;100364.09;;;;-51
2021/11/05 01:37:37;;;;;;;1.78;1.68;;;;;;;19.12;59.39;100363.45;;;;-49
2021/11/05 01:40:37;;;;;;;1.85;1.73;;;;;;;19.11;59.47;100363.59;;;;-49
2021/11/05 01:43:37;;;;;;;1.65;1.55;;;;;;;19.10;59.57;100363.44;;;;-49
2021/11/05 01:46:41;;;;;;;1.98;1.69;;;;;;;19.10;59.48;100370.91;;;;-49
2021/11/05 01:49:37;;;;;;;1.80;1.61;;;;;;;19.08;59.54;100370.89;;;;-49
2021/11/05 01:52:37;;;;;;;1.81;1.67;;;;;;;19.08;59.44;100370.81;;;;-49
2021/11/05 01:55:37;;;;;;;1.81;1.71;;;;;;;19.07;59.48;100374.96;;;;-51
2021/11/05 01:58:37;;;;;;;1.71;1.61;;;;;;;19.06;59.47;100374.94;;;;-49
2021/11/05 02:01:37;;;;;;;1.70;1.60;;;;;;;19.05;59.48;100374.55;;;;-49
2021/11/05 02:04:37;;;;;;;1.94;1.69;;;;;;;19.05;59.51;100377.52;;;;-55
2021/11/05 02:07:37;;;;;;;1.71;1.61;;;;;;;19.04;59.50;100378.50;;;;-55
2021/11/05 02:10:37;;;;;;;1.77;1.67;;;;;;;19.03;59.54;100382.56;;;;-49
2021/11/05 02:13:37;;;;;;;1.87;1.55;;;;;;;19.03;59.46;100384.59;;;;-49
2021/11/05 02:16:37;;;;;;;1.80;1.70;;;;;;;19.02;59.53;100386.93;;;;-55
2021/11/05 02:19:37;;;;;;;1.61;1.51;;;;;;;19.02;59.55;100387.34;;;;-55
2021/11/05 02:22:37;;;;;;;1.91;1.60;;;;;;;19.01;59.48;100392.30;;;;-55
2021/11/05 02:25:37;;;;;;;1.72;1.61;;;;;;;19.01;59.56;100392.84;;;;-55
2021/11/05 02:28:37;;;;;;;1.67;1.57;;;;;;;18.99;59.56;100393.83;;;;-55
2021/11/05 02:31:37;;;;;;;1.73;1.63;;;;;;;18.97;59.61;100399.09;;;;-51
2021/11/05 02:34:36;;;;;;;1.67;1.57;;;;;;;18.97;59.55;100405.83;;;;-55
2021/11/05 02:37:37;;;;;;;1.70;1.60;;;;;;;18.97;59.59;100408.19;;;;-55
2021/11/05 02:40:37;;;;;;;2.48;1.63;;;;;;;18.96;59.60;100411.73;;;;-49
2021/11/05 02:43:37;;;;;;;1.66;1.55;;;;;;;18.96;59.57;100413.36;;;;-53
2021/11/05 02:46:37;;;;;;;1.79;1.69;;;;;;;18.96;59.55;100419.38;;;;-51
2021/11/05 02:49:37;;;;;;;1.79;1.69;;;;;;;18.94;59.54;100421.87;;;;-51
2021/11/05 02:52:37;;;;;;;1.61;1.50;;;;;;;18.93;59.62;100427.56;;;;-55
2021/11/05 02:55:37;;;;;;;1.65;1.51;;;;;;;18.94;59.60;100428.29;;;;-49
2021/11/05 02:58:36;;;;;;;1.60;1.50;;;;;;;18.92;59.67;100430.63;;;;-49
2021/11/05 03:01:37;;;;;;;1.60;1.50;;;;;;;18.92;59.60;100433.47;;;;-49
2021/11/05 03:04:37;;;;;;;1.67;1.57;;;;;;;18.91;59.62;100436.56;;;;-49
2021/11/05 03:07:37;;;;;;;1.67;1.57;;;;;;;18.91;59.62;100442.41;;;;-49
2021/11/05 03:10:37;;;;;;;1.60;1.50;;;;;;;18.90;59.60;100444.00;;;;-51
2021/11/05 03:13:36;;;;;;;1.77;1.60;;;;;;;18.89;59.67;100444.83;;;;-49
2021/11/05 03:16:36;;;;;;;1.86;1.70;;;;;;;18.89;59.62;100445.23;;;;-55
2021/11/05 03:19:37;;;;;;;1.78;1.68;;;;;;;18.88;59.64;100446.75;;;;-55
2021/11/05 03:22:37;;;;;;;1.66;1.56;;;;;;;18.87;59.64;100454.39;;;;-51
2021/11/05 03:25:37;;;;;;;1.60;1.50;;;;;;;18.87;59.68;100459.98;;;;-51
2021/11/05 03:28:37;;;;;;;1.78;1.68;;;;;;;18.86;59.67;100464.02;;;;-49
2021/11/05 03:31:37;;;;;;;1.69;1.59;;;;;;;18.86;59.64;100465.56;;;;-49
2021/11/05 03:34:36;;;;;;;1.71;1.60;;;;;;;18.86;59.66;100470.36;;;;-51
2021/11/05 03:37:37;;;;;;;1.49;1.39;;;;;;;18.85;59.70;100478.23;;;;-55
2021/11/05 03:40:37;;;;;;;1.60;1.50;;;;;;;18.84;59.64;100482.59;;;;-49
2021/11/05 03:43:37;;;;;;;1.59;1.49;;;;;;;18.83;59.69;100487.80;;;;-51
2021/11/05 03:46:37;;;;;;;1.49;1.39;;;;;;;18.83;59.68;100493.16;;;;-51
2021/11/05 03:49:37;;;;;;;1.52;1.40;;;;;;;18.83;59.63;100494.37;;;;-49
2021/11/05 03:52:37;;;;;;;1.70;1.60;;;;;;;18.83;59.62;100499.89;;;;-49
2021/11/05 03:55:37;;;;;;;1.60;1.50;;;;;;;18.82;59.61;100508.59;;;;-56
2021/11/05 03:58:37;;;;;;;1.71;1.61;;;;;;;18.81;59.66;100511.16;;;;-49
2021/11/05 04:01:36;;;;;;;1.70;1.60;;;;;;;18.81;59.66;100515.22;;;;-55
2021/11/05 04:04:36;;;;;;;1.59;1.49;;;;;;;18.80;59.66;100517.34;;;;-51
2021/11/05 04:07:36;;;;;;;1.65;1.55;;;;;;;18.80;59.69;100526.11;;;;-51
2021/11/05 04:10:36;;;;;;;1.60;1.50;;;;;;;18.80;59.71;100526.08;;;;-49
2021/11/05 04:13:37;;;;;;;1.60;1.50;;;;;;;18.80;59.65;100533.82;;;;-51
2021/11/05 04:16:36;;;;;;;1.71;1.60;;;;;;;18.80;59.65;100537.12;;;;-55
2021/11/05 04:19:37;;;;;;;1.63;1.53;;;;;;;18.78;59.66;100540.75;;;;-55
2021/11/05 04:22:37;;;;;;;1.70;1.60;;;;;;;18.78;59.68;100545.16;;;;-55
2021/11/05 04:25:37;;;;;;;1.60;1.50;;;;;;;18.77;59.63;100550.46;;;;-55
2021/11/05 04:28:37;;;;;;;1.67;1.57;;;;;;;18.77;59.67;100549.49;;;;-55
2021/11/05 04:31:37;;;;;;;1.59;1.49;;;;;;;18.76;59.63;100552.82;;;;-51
2021/11/05 04:34:36;;;;;;;1.69;1.57;;;;;;;18.76;59.65;100554.09;;;;-56
2021/11/05 04:37:36;;;;;;;1.60;1.50;;;;;;;18.75;59.63;100550.61;;;;-49
2021/11/05 04:40:36;;;;;;;1.73;1.63;;;;;;;18.75;59.63;100556.05;;;;-51
2021/11/05 04:43:37;;;;;;;1.64;1.50;;;;;;;18.75;59.69;100555.48;;;;-51
2021/11/05 04:46:36;;;;;;;1.50;1.40;;;;;;;18.75;59.68;100562.22;;;;-51
2021/11/05 04:49:37;;;;;;;1.63;1.53;;;;;;;18.73;59.68;100563.81;;;;-51
2021/11/05 04:52:37;;;;;;;1.57;1.47;;;;;;;18.73;59.63;100564.38;;;;-51
2021/11/05 04:55:36;;;;;;;1.61;1.51;;;;;;;18.73;59.65;100573.07;;;;-49
2021/11/05 04:58:37;;;;;;;1.69;1.59;;;;;;;18.73;59.64;100575.27;;;;-55
2021/11/05 05:01:36;;;;;;;1.54;1.44;;;;;;;18.73;59.60;100581.68;;;;-55
2021/11/05 05:04:37;;;;;;;1.51;1.41;;;;;;;18.72;59.65;100586.14;;;;-55
2021/11/05 05:07:36;;;;;;;1.51;1.41;;;;;;;18.72;59.63;100589.80;;;;-55
2021/11/05 05:10:37;;;;;;;1.50;1.40;;;;;;;18.71;59.67;100591.55;;;;-54
2021/11/05 05:13:36;;;;;;;1.55;1.45;;;;;;;18.71;59.68;100592.37;;;;-56
2021/11/05 05:16:36;;;;;;;1.54;1.44;;;;;;;18.70;59.67;100598.05;;;;-49
2021/11/05 05:19:36;;;;;;;1.51;1.41;;;;;;;18.69;59.70;100603.05;;;;-55
2021/11/05 05:22:37;;;;;;;1.67;1.57;;;;;;;18.70;59.71;100608.85;;;;-55
2021/11/05 05:25:36;;;;;;;1.50;1.40;;;;;;;18.69;59.69;100609.71;;;;-55
2021/11/05 05:28:37;;;;;;;1.59;1.49;;;;;;;18.68;59.69;100609.87;;;;-49
2021/11/05 05:31:36;;;;;;;1.50;1.40;;;;;;;18.68;59.70;100614.83;;;;-56
2021/11/05 05:34:36;;;;;;;1.50;1.40;;;;;;;18.68;59.68;100614.67;;;;-49
2021/11/05 05:37:36;;;;;;;1.50;1.40;;;;;;;18.68;59.72;100622.95;;;;-49
2021/11/05 05:40:36;;;;;;;1.49;1.39;;;;;;;18.67;59.70;100623.16;;;;-55
2021/11/05 05:43:37;;;;;;;1.59;1.49;;;;;;;18.67;59.65;100626.73;;;;-51
2021/11/05 05:46:36;;;;;;;1.55;1.45;;;;;;;18.67;59.65;100630.47;;;;-51
2021/11/05 05:49:37;;;;;;;1.55;1.45;;;;;;;18.67;59.63;100636.23;;;;-55
2021/11/05 05:52:36;;;;;;;1.50;1.40;;;;;;;18.66;59.63;100643.05;;;;-49
2021/11/05 05:55:38;;;;;;;1.57;1.44;;;;;;;18.66;59.69;100646.30;;;;-49
2021/11/05 05:58:36;;;;;;;1.63;1.53;;;;;;;18.66;59.64;100643.95;;;;-56
2021/11/05 06:01:37;;;;;;;1.50;1.40;;;;;;;18.66;59.70;100650.84;;;;-54
2021/11/05 06:04:37;;;;;;;4.77;1.99;;;;;;;18.64;58.78;100654.23;;;;-48
2021/11/05 06:07:36;;;;;;;3.39;2.84;;;;;;;18.54;57.86;100657.18;;;;-49
2021/11/05 06:10:37;;;;;;;3.64;3.30;;;;;;;18.49;57.44;100667.76;;;;-49
2021/11/05 06:13:36;;;;;;;3.85;3.46;;;;;;;18.45;57.12;100671.34;;;;-50
2021/11/05 06:16:36;;;;;;;3.83;3.29;;;;;;;18.41;57.00;100670.72;;;;-51
2021/11/05 06:19:36;;;;;;;4.89;3.64;;;;;;;18.38;56.80;100673.34;;;;-51
2021/11/05 06:22:36;;;;;;;3.87;3.45;;;;;;;18.36;56.69;100686.38;;;;-51
2021/11/05 06:25:37;;;;;;;4.21;3.78;;;;;;;18.33;56.57;100690.32;;;;-51
2021/11/05 06:28:36;;;;;;;4.67;3.75;;;;;;;18.31;56.44;100693.12;;;;-51
2021/11/05 06:31:37;;;;;;;3.93;3.56;;;;;;;18.29;56.37;100699.51;;;;-51
2021/11/05 06:34:37;;;;;;;4.41;3.93;;;;;;;18.26;56.13;100704.51;;;;-50
2021/11/05 06:37:37;;;;;;;4.47;4.07;;;;;;;18.23;55.97;100712.88;;;;-55
2021/11/05 06:40:36;;;;;;;4.65;4.05;;;;;;;18.21;55.88;100713.01;;;;-57
2021/11/05 06:43:36;;;;;;;4.07;3.67;;;;;;;18.17;55.79;100723.16;;;;-56
2021/11/05 06:46:36;;;;;;;4.79;4.11;;;;;;;18.15;55.73;100733.92;;;;-49
2021/11/05 06:49:36;;;;;;;4.79;4.05;;;;;;;18.12;55.68;100738.83;;;;-56
2021/11/05 06:52:36;;;;;;;5.51;4.23;;;;;;;18.10;55.67;100745.37;;;;-55
2021/11/05 06:55:36;;;;;;;5.84;4.25;;;;;;;18.07;55.64;100754.74;;;;-56
2021/11/05 06:58:37;;;;;;;5.03;4.20;;;;;;;18.05;55.58;100761.03;;;;-56
2021/11/05 07:01:38;;;;;;;4.89;4.15;;;;;;;18.03;55.61;100764.12;;;;-56
2021/11/05 07:04:36;;;;;;;6.03;4.28;;;;;;;18.02;55.65;100770.05;;;;-56
2021/11/05 07:07:37;;;;;;;5.00;3.85;;;;;;;18.00;55.62;100776.17;;;;-50
2021/11/05 07:10:36;;;;;;;4.21;3.81;;;;;;;17.99;55.56;100789.47;;;;-50
2021/11/05 07:13:36;;;;;;;5.65;4.15;;;;;;;17.97;55.58;100795.48;;;;-56
2021/11/05 07:16:37;;;;;;;4.35;3.95;;;;;;;17.94;55.52;100802.58;;;;-55
2021/11/05 07:19:36;;;;;;;4.21;3.67;;;;;;;17.92;55.62;100804.56;;;;-56
2021/11/05 07:22:37;;;;;;;5.22;3.84;;;;;;;17.91;55.58;100811.30;;;;-50
2021/11/05 07:25:37;;;;;;;4.06;3.66;;;;;;;17.90;55.61;100819.21;;;;-49
2021/11/05 07:28:36;;;;;;;4.95;3.83;;;;;;;17.88;55.64;100824.44;;;;-50
2021/11/05 07:31:37;;;;;;;4.30;3.90;;;;;;;17.87;55.65;100828.89;;;;-56
2021/11/05 07:34:36;;;;;;;4.35;3.95;;;;;;;17.86;55.65;100835.83;;;;-50
2021/11/05 07:37:36;;;;;;;5.80;3.87;;;;;;;17.85;55.66;100847.83;;;;-56
2021/11/05 07:40:36;;;;;;;4.73;3.77;;;;;;;17.81;55.64;100849.74;;;;-56
2021/11/05 07:43:36;;;;;;;4.11;3.71;;;;;;;17.80;55.65;100861.87;;;;-56
2021/11/05 07:46:37;;;;;;;4.43;3.98;;;;;;;17.78;55.68;100871.19;;;;-51
2021/11/05 07:49:37;;;;;;;4.01;3.61;;;;;;;17.78;55.75;100872.61;;;;-51
2021/11/05 07:52:36;;;;;;;4.17;3.77;;;;;;;17.75;55.77;100878.48;;;;-51
2021/11/05 07:55:36;;;;;;;5.28;4.05;;;;;;;17.74;55.79;100886.88;;;;-51
2021/11/05 07:58:37;;;;;;;4.23;3.83;;;;;;;17.73;55.79;100890.03;;;;-51
2021/11/05 08:01:36;;;;;;;5.04;3.95;;;;;;;17.71;55.82;100893.64;;;;-51
2021/11/05 08:04:36;;;;;;;4.16;3.76;;;;;;;17.71;55.86;100900.69;;;;-51
2021/11/05 08:07:36;;;;;;;4.25;3.85;;;;;;;17.70;55.91;100907.22;;;;-51
2021/11/05 08:10:36;;;;;;;5.33;4.15;;;;;;;17.68;55.89;100911.09;;;;-51
2021/11/05 08:13:36;;;;;;;5.01;3.94;;;;;;;17.67;55.90;100915.44;;;;-55
2021/11/05 08:16:36;;;;;;;4.89;3.82;;;;;;;17.65;55.91;100920.75;;;;-55
2021/11/05 08:19:36;;;;;;;4.26;3.81;;;;;;;17.64;55.99;100929.81;;;;-51
2021/11/05 08:22:36;;;;;;;5.51;3.97;;;;;;;17.63;56.07;100935.86;;;;-49
2021/11/05 08:25:37;;;;;;;5.43;3.95;;;;;;;17.62;56.05;100939.58;;;;-49
2021/11/05 08:28:38;;;;;;;4.32;3.90;;;;;;;17.60;55.98;100946.59;;;;-51
2021/11/05 08:31:36;;;;;;;4.24;3.39;;;;;;;17.68;56.49;100952.68;;;;-55
2021/11/05 08:34:39;;;;;;;5.25;3.11;;;;;;;17.74;56.52;100956.42;;;;-49
2021/11/05 08:37:36;;;;;;;4.93;3.03;;;;;;;17.78;56.62;100960.48;;;;-55
2021/11/05 08:40:36;;;;;;;3.47;2.50;;;;;;;17.82;56.69;100965.28;;;;-55
2021/11/05 08:43:36;;;;;;;2.79;2.50;;;;;;;17.87;56.81;100969.41;;;;-55
2021/11/05 08:46:37;;;;;;;3.45;2.38;;;;;;;17.92;56.80;100974.11;;;;-55
2021/11/05 08:49:36;;;;;;;3.20;2.12;;;;;;;17.96;56.90;100979.23;;;;-49
2021/11/05 08:52:36;;;;;;;2.33;2.07;;;;;;;18.02;56.95;100984.39;;;;-49
2021/11/05 08:55:38;;;;;;;3.50;2.03;;;;;;;18.07;56.99;100985.45;;;;-49
2021/11/05 08:58:36;;;;;;;2.38;2.09;;;;;;;18.11;57.07;100987.80;;;;-49
2021/11/05 09:01:36;;;;;;;3.63;2.13;;;;;;;18.18;57.85;100990.80;;;;-48
2021/11/05 09:04:36;;;;;;;4.97;2.01;;;;;;;18.24;58.79;100997.50;;;;-50
2021/11/05 09:07:37;;;;;;;4.65;2.15;;;;;;;18.30;58.66;101000.75;;;;-51
2021/11/05 09:10:36;;;;;;;2.19;1.99;;;;;;;18.37;58.65;101009.19;;;;-53
2021/11/05 09:13:36;;;;;;;2.85;1.82;;;;;;;18.44;58.60;101014.83;;;;-50
2021/11/05 09:16:37;;;;;;;2.82;1.83;;;;;;;18.50;58.67;101020.55;;;;-48
2021/11/05 09:19:36;;;;;;;1.85;1.74;;;;;;;18.57;58.75;101025.46;;;;-48
2021/11/05 09:22:36;;;;;;;2.85;1.78;;;;;;;18.62;58.61;101027.84;;;;-57
2021/11/05 09:25:36;;;;;;;2.83;1.84;;;;;;;18.69;58.65;101033.56;;;;-55
2021/11/05 09:28:36;;;;;;;2.49;1.85;;;;;;;18.76;59.16;101043.79;;;;-49
2021/11/05 09:31:36;;;;;;;3.13;1.69;;;;;;;18.83;59.39;101048.81;;;;-53
2021/11/05 09:34:36;;;;;;;1.75;1.62;;;;;;;18.87;58.83;101052.45;;;;-49
2021/11/05 09:37:36;;;;;;;1.84;1.71;;;;;;;18.92;58.49;101056.03;;;;-59
2021/11/05 09:40:36;;;;;;;1.81;1.71;;;;;;;18.95;58.23;101055.94;;;;-47
2021/11/05 09:43:37;;;;;;;2.38;1.79;;;;;;;19.01;58.45;101065.68;;;;-50
2021/11/05 09:46:37;;;;;;;6.71;1.99;;;;;;;19.06;58.58;101069.93;;;;-50
2021/11/05 09:49:36;;;;;;;5.21;1.90;;;;;;;19.11;58.61;101072.06;;;;-48
2021/11/05 09:52:36;;;;;;;2.04;1.77;;;;;;;19.14;58.49;101072.27;;;;-53
2021/11/05 09:55:36;;;;;;;3.02;1.59;;;;;;;19.19;58.78;101076.33;;;;-49
2021/11/05 09:58:37;;;;;;;1.87;1.62;;;;;;;19.23;58.85;101078.67;;;;-54
2021/11/05 10:01:36;;;;;;;2.31;1.67;;;;;;;19.28;58.60;101086.90;;;;-51
2021/11/05 10:04:36;;;;;;;2.72;1.70;;;;;;;19.33;58.91;101091.52;;;;-50
2021/11/05 10:07:38;;;;;;;2.13;1.70;;;;;;;19.36;58.71;101093.27;;;;-51
2021/11/05 10:10:36;;;;;;;1.59;1.49;;;;;;;19.41;58.79;101095.64;;;;-55
2021/11/05 10:13:36;;;;;;;2.07;1.64;;;;;;;19.44;58.96;101097.91;;;;-50
2021/11/05 10:16:37;;;;;;;2.04;1.59;;;;;;;19.47;58.96;101102.41;;;;-50
2021/11/05 10:19:36;;;;;;;1.60;1.50;;;;;;;19.50;58.72;101106.76;;;;-47
2021/11/05 10:22:36;;;;;;;1.72;1.62;;;;;;;19.54;58.96;101106.59;;;;-60
2021/11/05 10:25:37;;;;;;;1.98;1.69;;;;;;;19.57;58.70;101112.34;;;;-51
2021/11/05 10:28:36;;;;;;;2.20;1.70;;;;;;;19.60;58.91;101111.31;;;;-52
2021/11/05 10:31:37;;;;;;;2.08;1.60;;;;;;;19.63;58.73;101109.59;;;;-60
2021/11/05 10:34:36;;;;;;;3.18;1.59;;;;;;;19.67;58.46;101113.16;;;;-49
2021/11/05 10:37:37;;;;;;;1.77;1.61;;;;;;;19.68;58.44;101113.97;;;;-52
2021/11/05 10:40:36;;;;;;;2.73;1.73;;;;;;;19.74;58.71;101121.34;;;;-52
2021/11/05 10:43:36;;;;;;;2.84;1.60;;;;;;;19.74;57.75;101120.04;;;;-52
2021/11/05 10:46:38;;;;;;;2.07;1.67;;;;;;;19.74;57.73;101120.04;;;;-53
2021/11/05 10:49:40;;;;;;;1.96;1.70;;;;;;;19.79;58.34;101121.08;;;;-51
2021/11/05 10:52:36;;;;;;;2.63;1.70;;;;;;;19.81;58.30;101119.56;;;;-61
2021/11/05 10:55:36;;;;;;;2.98;1.81;;;;;;;19.83;57.90;101120.00;;;;-53
2021/11/05 10:58:36;;;;;;;1.91;1.69;;;;;;;19.87;58.34;101124.05;;;;-53
2021/11/05 11:01:36;;;;;;;3.58;1.60;;;;;;;19.88;58.02;101125.84;;;;-54
2021/11/05 11:04:36;;;;;;;2.27;1.74;;;;;;;19.89;58.25;101124.81;;;;-53
2021/11/05 11:07:36;;;;;;;1.83;1.73;;;;;;;19.92;58.35;101128.05;;;;-52
2021/11/05 11:10:36;;;;;;;2.21;1.73;;;;;;;19.95;58.41;101124.34;;;;-51
2021/11/05 11:13:36;;;;;;;9.63;1.93;;;;;;;19.99;58.47;101125.95;;;;-47
2021/11/05 11:16:36;;;;;;;4.10;1.80;;;;;;;19.99;58.36;101126.03;;;;-51
2021/11/05 11:19:38;;;;;;;2.21;1.60;;;;;;;20.01;58.51;101126.14;;;;-52
2021/11/05 11:22:45;;;;;;;2.48;1.67;;;;;;;20.02;58.41;101130.12;;;;-48
2021/11/05 11:25:36;;;;;;;2.69;1.77;;;;;;;20.03;58.38;101128.69;;;;-48
2021/11/05 11:28:36;;;;;;;3.83;1.60;;;;;;;20.04;58.27;101132.84;;;;-52
2021/11/05 11:31:36;;;;;;;2.25;1.69;;;;;;;20.05;58.23;101127.75;;;;-51
2021/11/05 11:34:36;;;;;;;3.25;1.65;;;;;;;20.07;58.44;101133.06;;;;-54
2021/11/05 11:37:36;;;;;;;2.48;1.81;;;;;;;20.08;58.16;101138.92;;;;-59
2021/11/05 11:40:36;;;;;;;1.91;1.59;;;;;;;20.06;58.00;101143.61;;;;-59
2021/11/05 11:43:36;;;;;;;1.73;1.55;;;;;;;20.06;57.79;101139.70;;;;-53
2021/11/05 11:46:36;;;;;;;2.62;1.65;;;;;;;20.06;57.96;101144.27;;;;-54
2021/11/05 11:49:36;;;;;;;2.53;1.83;;;;;;;20.04;57.56;101144.39;;;;-53
2021/11/05 11:52:36;;;;;;;2.73;2.44;;;;;;;20.04;56.97;101143.99;;;;-52
2021/11/05 11:55:36;;;;;;;6.12;2.99;;;;;;;20.03;56.60;101145.95;;;;-52
2021/11/05 11:58:36;;;;;;;2.77;2.52;;;;;;;20.03;55.83;101146.76;;;;-51
2021/11/05 12:01:39;;;;;;;2.36;2.16;;;;;;;20.03;56.63;101148.71;;;;-52
2021/11/05 12:04:36;;;;;;;2.91;2.29;;;;;;;20.03;56.18;101152.37;;;;-50
2021/11/05 12:07:36;;;;;;;3.59;2.11;;;;;;;20.03;56.18;101151.72;;;;-51
2021/11/05 12:10:37;;;;;;;2.34;2.11;;;;;;;20.05;56.27;101157.05;;;;-50
2021/11/05 12:13:36;;;;;;;4.22;2.41;;;;;;;20.07;56.33;101161.38;;;;-51
2021/11/05 12:16:38;;;;;;;2.97;2.11;;;;;;;20.09;56.61;101160.44;;;;-51
2021/11/05 12:19:36;;;;;;;3.11;1.94;;;;;;;20.13;56.74;101158.84;;;;-51
2021/11/05 12:22:36;;;;;;;3.86;2.00;;;;;;;20.14;56.81;101161.39;;;;-51
2021/11/05 12:25:36;;;;;;;2.66;1.83;;;;;;;20.16;56.80;101161.34;;;;-51
2021/11/05 12:28:36;;;;;;;2.73;1.93;;;;;;;20.18;56.89;101161.30;;;;-51
2021/11/05 12:31:40;;;;;;;2.15;1.90;;;;;;;20.19;56.99;101166.05;;;;-57
2021/11/05 12:34:39;;;;;;;2.11;1.91;;;;;;;20.21;56.84;101168.16;;;;-58
2021/11/05 12:37:37;;;;;;;2.61;1.70;;;;;;;20.23;56.92;101167.86;;;;-58
2021/11/05 12:40:39;;;;;;;2.61;1.71;;;;;;;20.24;57.00;101168.30;;;;-51
2021/11/05 12:43:36;;;;;;;1.96;1.70;;;;;;;20.25;56.92;101168.33;;;;-51
2021/11/05 12:46:36;;;;;;;2.95;1.90;;;;;;;20.27;56.94;101176.72;;;;-51
2021/11/05 12:49:36;;;;;;;1.81;1.70;;;;;;;20.28;56.98;101174.14;;;;-58
2021/11/05 12:52:36;;;;;;;2.15;1.83;;;;;;;20.28;56.96;101180.08;;;;-51
2021/11/05 12:55:36;;;;;;;2.71;1.79;;;;;;;20.29;57.03;101178.21;;;;-51
2021/11/05 12:58:37;;;;;;;1.83;1.67;;;;;;;20.30;56.99;101179.70;;;;-51
2021/11/05 13:01:36;;;;;;;1.86;1.51;;;;;;;20.30;56.97;101178.89;;;;-52
2021/11/05 13:04:42;;;;;;;2.07;1.82;;;;;;;20.30;57.08;101185.24;;;;-52
2021/11/05 13:07:36;;;;;;;2.53;1.88;;;;;;;20.32;57.01;101191.70;;;;-51
2021/11/05 13:10:36;;;;;;;1.89;1.68;;;;;;;20.31;57.02;101196.63;;;;-51
2021/11/05 13:13:36;;;;;;;4.07;1.81;;;;;;;20.32;56.96;101195.20;;;;-52
2021/11/05 13:16:38;;;;;;;1.89;1.69;;;;;;;20.32;57.04;101200.66;;;;-58
2021/11/05 13:19:36;;;;;;;1.99;1.79;;;;;;;20.32;57.02;101199.84;;;;-52
2021/11/05 13:22:36;;;;;;;1.89;1.59;;;;;;;20.32;57.00;101201.39;;;;-58
2021/11/05 13:25:37;;;;;;;1.75;1.65;;;;;;;20.33;56.97;101207.17;;;;-58
2021/11/05 13:28:36;;;;;;;1.77;1.67;;;;;;;20.33;57.06;101208.23;;;;-58
2021/11/05 13:31:36;;;;;;;1.84;1.74;;;;;;;20.30;57.12;101210.23;;;;-51
2021/11/05 13:34:36;;;;;;;7.44;2.03;;;;;;;20.33;57.22;101208.80;;;;-53
2021/11/05 13:37:37;;;;;;;1.86;1.71;;;;;;;20.25;57.47;101193.29;;;;-57
2021/11/05 13:40:36;;;;;;;1.89;1.79;;;;;;;20.35;57.58;101208.42;;;;-56
2021/11/05 13:43:36;;;;;;;1.78;1.54;;;;;;;20.36;57.57;101207.64;;;;-48
2021/11/05 13:46:36;;;;;;;3.25;1.75;;;;;;;20.37;57.14;101210.81;;;;-48
2021/11/05 13:49:36;;;;;;;3.14;1.69;;;;;;;20.38;57.38;101213.36;;;;-50
2021/11/05 13:52:37;;;;;;;2.17;1.75;;;;;;;20.39;57.46;101218.58;;;;-48
2021/11/05 13:55:37;;;;;;;4.29;1.85;;;;;;;20.38;57.17;101217.59;;;;-47
2021/11/05 13:58:36;;;;;;;4.41;2.28;;;;;;;20.37;56.96;101220.50;;;;-51
2021/11/05 14:01:36;;;;;;;3.35;2.30;;;;;;;20.36;56.53;101225.55;;;;-50
2021/11/05 14:04:36;;;;;;;3.53;2.42;;;;;;;20.37;56.55;101225.05;;;;-52
2021/11/05 14:07:36;;;;;;;3.44;2.24;;;;;;;20.37;56.84;101227.25;;;;-52
2021/11/05 14:10:36;;;;;;;3.99;2.29;;;;;;;20.37;56.69;101231.41;;;;-52
2021/11/05 14:13:36;;;;;;;3.00;2.15;;;;;;;20.37;56.79;101235.48;;;;-59
2021/11/05 14:16:36;;;;;;;3.09;2.05;;;;;;;20.37;56.82;101236.62;;;;-59
2021/11/05 14:19:36;;;;;;;2.24;1.97;;;;;;;20.37;56.89;101242.08;;;;-59
2021/11/05 14:22:36;;;;;;;3.37;2.00;;;;;;;20.36;56.92;101246.39;;;;-52
2021/11/05 14:25:36;;;;;;;3.03;2.04;;;;;;;20.36;56.93;101253.44;;;;-52
2021/11/05 14:28:36;;;;;;;2.56;1.97;;;;;;;20.35;56.93;101253.19;;;;-52
2021/11/05 14:31:36;;;;;;;3.96;2.20;;;;;;;20.35;56.97;101260.68;;;;-59
2021/11/05 14:34:36;;;;;;;2.86;2.01;;;;;;;20.35;56.99;101266.05;;;;-59
2021/11/05 14:37:36;;;;;;;2.26;1.83;;;;;;;20.35;56.99;101266.22;;;;-59
2021/11/05 14:40:36;;;;;;;4.58;2.05;;;;;;;20.35;57.00;101268.17;;;;-59
2021/11/05 14:43:36;;;;;;;2.15;1.95;;;;;;;20.36;57.04;101269.06;;;;-52
2021/11/05 14:46:36;;;;;;;2.19;1.96;;;;;;;20.35;57.04;101274.77;;;;-54
2021/11/05 14:49:36;;;;;;;2.82;1.90;;;;;;;20.35;57.05;101273.14;;;;-51
2021/11/05 14:52:36;;;;;;;3.01;2.01;;;;;;;20.36;57.11;101275.05;;;;-53
2021/11/05 14:55:36;;;;;;;2.92;1.87;;;;;;;20.36;57.31;101277.97;;;;-58
2021/11/05 14:58:36;;;;;;;2.32;1.97;;;;;;;20.37;57.44;101279.11;;;;-55
2021/11/05 15:01:36;;;;;;;2.03;1.88;;;;;;;20.40;57.55;101285.09;;;;-54
2021/11/05 15:04:37;;;;;;;2.99;2.08;;;;;;;20.42;57.67;101287.73;;;;-51
2021/11/05 15:07:36;;;;;;;2.27;2.07;;;;;;;20.43;57.32;101287.35;;;;-57
2021/11/05 15:10:36;;;;;;;3.13;2.04;;;;;;;20.42;57.31;101290.77;;;;-57
2021/11/05 15:13:36;;;;;;;2.19;1.99;;;;;;;20.42;57.27;101294.41;;;;-57
2021/11/05 15:16:36;;;;;;;2.09;1.89;;;;;;;20.42;57.21;101299.64;;;;-57
2021/11/05 15:19:36;;;;;;;2.20;2.01;;;;;;;20.42;57.22;101301.77;;;;-50
2021/11/05 15:22:36;;;;;;;2.60;1.92;;;;;;;20.41;57.20;101303.77;;;;-50
2021/11/05 15:25:36;;;;;;;2.38;1.95;;;;;;;20.42;57.18;101306.20;;;;-46
2021/11/05 15:28:37;;;;;;;2.40;1.89;;;;;;;20.41;57.25;101311.50;;;;-50
2021/11/05 15:31:38;;;;;;;2.13;1.89;;;;;;;20.41;57.25;101314.84;;;;-46
2021/11/05 15:34:37;;;;;;;2.07;1.87;;;;;;;20.42;57.26;101322.81;;;;-57
2021/11/05 15:37:36;;;;;;;3.36;1.89;;;;;;;20.42;57.24;101326.23;;;;-50
2021/11/05 15:40:36;;;;;;;2.22;1.76;;;;;;;20.42;57.27;101329.41;;;;-50
2021/11/05 15:43:36;;;;;;;3.37;1.81;;;;;;;20.41;57.34;101327.13;;;;-51
2021/11/05 15:46:36;;;;;;;6.90;2.09;;;;;;;20.43;57.50;101326.59;;;;-58
2021/11/05 15:49:36;;;;;;;4.34;2.47;;;;;;;20.43;57.45;101329.85;;;;-59
2021/11/05 15:52:36;;;;;;;3.98;2.63;;;;;;;20.44;57.57;101329.61;;;;-61
2021/11/05 15:55:36;;;;;;;4.95;2.63;;;;;;;20.47;57.17;101332.28;;;;-48
2021/11/05 15:58:36;;;;;;;6.43;2.43;;;;;;;20.48;57.21;101331.06;;;;-50
2021/11/05 16:01:36;;;;;;;2.83;2.15;;;;;;;20.51;57.44;101335.94;;;;-49
2021/11/05 16:04:36;;;;;;;3.64;2.00;;;;;;;20.52;57.44;101334.74;;;;-49
2021/11/05 16:07:36;;;;;;;2.37;2.11;;;;;;;20.54;57.50;101332.98;;;;-48
2021/11/05 16:10:37;;;;;;;2.63;2.16;;;;;;;20.56;57.28;101334.28;;;;-58
2021/11/05 16:13:36;;;;;;;3.33;2.16;;;;;;;20.59;57.56;101334.14;;;;-60
2021/11/05 16:16:36;;;;;;;3.64;2.22;;;;;;;20.60;57.34;101334.71;;;;-49
2021/11/05 16:19:36;;;;;;;3.06;1.89;;;;;;;20.63;57.46;101338.77;;;;-53
2021/11/05 16:22:36;;;;;;;2.25;2.05;;;;;;;20.64;57.42;101347.89;;;;-48
2021/11/05 16:25:36;;;;;;;2.69;1.99;;;;;;;20.66;57.67;101349.80;;;;-50
2021/11/05 16:28:36;;;;;;;2.37;2.16;;;;;;;20.69;57.80;101354.06;;;;-51
2021/11/05 16:31:36;;;;;;;2.27;2.06;;;;;;;20.70;57.78;101358.49;;;;-48
2021/11/05 16:34:36;;;;;;;2.77;2.19;;;;;;;20.71;57.76;101358.20;;;;-49
2021/11/05 16:37:36;;;;;;;3.42;1.97;;;;;;;20.73;57.67;101359.91;;;;-50
2021/11/05 16:40:36;;;;;;;5.55;2.36;;;;;;;20.72;57.42;101365.28;;;;-52
2021/11/05 16:43:36;;;;;;;5.14;2.26;;;;;;;20.74;57.41;101367.76;;;;-46